Terminal Aerodrome Forecast
Issued by NWS Memphis, TN

Home | Current Version | Previous Version | Text Only | Print | Product List | Glossary On
Versions: 1 2 3 4 5 6 7 8 9 10 11 12 13 14 15 16 17 18 19 20 21 22 23 24 25 26 27 28 29 30 31 32 33
000
FTUS44 KMEG 271123
TAFMEM
TAF
KMEM 271123Z 2712/2812 17012KT P6SM VCSH FEW035 BKN100
     FM271700 17012G18KT P6SM VCSH BKN040 BKN150
     FM272300 16010KT P6SM -SHRA VCTS SCT015 BKN040CB
      TEMPO 2801/2805 VRB15G25KT 2SM TSRA OVC015CB
     FM280700 17010KT P6SM VCSH SCT025 OVC060=

USA.gov is the U.S. government's official web portal to all federal, state and local government web resources and services.